sensor_id;sensor_type;location;lat;lon;timestamp;P1;durP1;ratioP1;P2;durP2;ratioP2
60006;SDS011;45863;50.336;3.536;2022-08-19T00:00:33;53.95;;;38.92;;
60006;SDS011;45863;50.336;3.536;2022-08-19T00:02:58;54.78;;;38.00;;
60006;SDS011;45863;50.336;3.536;2022-08-19T00:05:23;58.60;;;39.37;;
60006;SDS011;45863;50.336;3.536;2022-08-19T00:07:49;53.58;;;35.97;;
60006;SDS011;45863;50.336;3.536;2022-08-19T00:10:16;42.88;;;31.27;;
60006;SDS011;45863;50.336;3.536;2022-08-19T00:12:41;39.55;;;29.48;;
60006;SDS011;45863;50.336;3.536;2022-08-19T00:15:08;41.55;;;27.80;;
60006;SDS011;45863;50.336;3.536;2022-08-19T00:17:36;40.20;;;28.35;;
60006;SDS011;45863;50.336;3.536;2022-08-19T00:20:02;43.13;;;28.83;;
60006;SDS011;45863;50.336;3.536;2022-08-19T00:22:27;43.33;;;31.77;;
60006;SDS011;45863;50.336;3.536;2022-08-19T00:24:53;43.33;;;30.33;;
60006;SDS011;45863;50.336;3.536;2022-08-19T00:27:18;32.50;;;24.30;;
60006;SDS011;45863;50.336;3.536;2022-08-19T00:29:43;34.20;;;25.27;;
60006;SDS011;45863;50.336;3.536;2022-08-19T00:32:08;30.35;;;23.60;;
60006;SDS011;45863;50.336;3.536;2022-08-19T00:34:34;34.20;;;21.15;;
60006;SDS011;45863;50.336;3.536;2022-08-19T00:37:00;28.63;;;20.85;;
60006;SDS011;45863;50.336;3.536;2022-08-19T00:39:25;26.60;;;18.80;;
60006;SDS011;45863;50.336;3.536;2022-08-19T00:41:50;24.70;;;16.25;;
60006;SDS011;45863;50.336;3.536;2022-08-19T00:44:18;24.50;;;17.90;;
60006;SDS011;45863;50.336;3.536;2022-08-19T00:46:45;23.83;;;15.75;;
60006;SDS011;45863;50.336;3.536;2022-08-19T00:49:19;25.27;;;15.88;;
60006;SDS011;45863;50.336;3.536;2022-08-19T00:51:45;22.70;;;16.13;;
60006;SDS011;45863;50.336;3.536;2022-08-19T00:54:10;23.00;;;14.90;;
60006;SDS011;45863;50.336;3.536;2022-08-19T00:56:36;24.13;;;15.50;;
60006;SDS011;45863;50.336;3.536;2022-08-19T00:59:02;24.10;;;15.25;;
60006;SDS011;45863;50.336;3.536;2022-08-19T01:01:27;23.92;;;15.10;;
60006;SDS011;45863;50.336;3.536;2022-08-19T01:03:53;26.90;;;17.25;;
60006;SDS011;45863;50.336;3.536;2022-08-19T01:06:18;26.27;;;16.48;;
60006;SDS011;45863;50.336;3.536;2022-08-19T01:08:43;23.95;;;16.92;;
60006;SDS011;45863;50.336;3.536;2022-08-19T01:11:09;24.58;;;16.85;;
60006;SDS011;45863;50.336;3.536;2022-08-19T01:13:34;26.83;;;16.27;;
60006;SDS011;45863;50.336;3.536;2022-08-19T01:16:03;22.73;;;15.55;;
60006;SDS011;45863;50.336;3.536;2022-08-19T01:18:28;22.05;;;15.32;;
60006;SDS011;45863;50.336;3.536;2022-08-19T01:20:54;27.27;;;16.58;;
60006;SDS011;45863;50.336;3.536;2022-08-19T01:23:20;27.90;;;16.00;;
60006;SDS011;45863;50.336;3.536;2022-08-19T01:25:50;25.90;;;16.20;;
60006;SDS011;45863;50.336;3.536;2022-08-19T01:28:20;25.10;;;16.85;;
60006;SDS011;45863;50.336;3.536;2022-08-19T01:30:46;28.17;;;16.73;;
60006;SDS011;45863;50.336;3.536;2022-08-19T01:33:12;23.83;;;15.38;;
60006;SDS011;45863;50.336;3.536;2022-08-19T01:35:37;25.38;;;15.25;;
60006;SDS011;45863;50.336;3.536;2022-08-19T01:38:04;24.70;;;15.37;;
60006;SDS011;45863;50.336;3.536;2022-08-19T01:40:34;24.70;;;14.15;;
60006;SDS011;45863;50.336;3.536;2022-08-19T01:42:59;27.83;;;14.38;;
60006;SDS011;45863;50.336;3.536;2022-08-19T01:45:26;27.63;;;14.93;;
60006;SDS011;45863;50.336;3.536;2022-08-19T01:47:52;21.77;;;15.13;;
60006;SDS011;45863;50.336;3.536;2022-08-19T01:50:17;26.05;;;16.08;;
60006;SDS011;45863;50.336;3.536;2022-08-19T01:52:43;24.85;;;16.85;;
60006;SDS011;45863;50.336;3.536;2022-08-19T01:55:10;30.13;;;16.63;;
60006;SDS011;45863;50.336;3.536;2022-08-19T01:57:36;25.85;;;17.85;;
60006;SDS011;45863;50.336;3.536;2022-08-19T02:00:04;28.15;;;18.30;;
60006;SDS011;45863;50.336;3.536;2022-08-19T02:02:30;28.52;;;18.02;;
60006;SDS011;45863;50.336;3.536;2022-08-19T02:04:55;26.70;;;15.93;;
60006;SDS011;45863;50.336;3.536;2022-08-19T02:07:20;25.03;;;16.17;;
60006;SDS011;45863;50.336;3.536;2022-08-19T02:09:46;25.40;;;14.70;;
60006;SDS011;45863;50.336;3.536;2022-08-19T02:12:13;20.95;;;12.20;;
60006;SDS011;45863;50.336;3.536;2022-08-19T02:14:38;21.25;;;11.77;;
60006;SDS011;45863;50.336;3.536;2022-08-19T02:17:03;19.97;;;11.43;;
60006;SDS011;45863;50.336;3.536;2022-08-19T02:19:28;20.48;;;11.48;;
60006;SDS011;45863;50.336;3.536;2022-08-19T02:21:54;21.17;;;11.23;;
60006;SDS011;45863;50.336;3.536;2022-08-19T02:24:19;20.77;;;11.23;;
60006;SDS011;45863;50.336;3.536;2022-08-19T02:26:44;19.63;;;11.68;;
60006;SDS011;45863;50.336;3.536;2022-08-19T02:29:11;18.92;;;10.80;;
60006;SDS011;45863;50.336;3.536;2022-08-19T02:31:36;19.20;;;10.48;;
60006;SDS011;45863;50.336;3.536;2022-08-19T02:34:01;18.25;;;10.45;;
60006;SDS011;45863;50.336;3.536;2022-08-19T02:36:26;19.17;;;10.70;;
60006;SDS011;45863;50.336;3.536;2022-08-19T02:38:52;17.70;;;9.73;;
60006;SDS011;45863;50.336;3.536;2022-08-19T02:41:19;17.48;;;10.32;;
60006;SDS011;45863;50.336;3.536;2022-08-19T02:43:46;21.85;;;10.73;;
60006;SDS011;45863;50.336;3.536;2022-08-19T02:46:15;17.23;;;9.45;;
60006;SDS011;45863;50.336;3.536;2022-08-19T02:48:43;17.25;;;8.50;;
60006;SDS011;45863;50.336;3.536;2022-08-19T02:51:08;18.08;;;9.15;;
60006;SDS011;45863;50.336;3.536;2022-08-19T02:53:33;17.37;;;9.53;;
60006;SDS011;45863;50.336;3.536;2022-08-19T02:55:59;16.23;;;8.98;;
60006;SDS011;45863;50.336;3.536;2022-08-19T02:58:24;17.17;;;9.30;;
60006;SDS011;45863;50.336;3.536;2022-08-19T03:00:52;14.90;;;9.13;;
60006;SDS011;45863;50.336;3.536;2022-08-19T03:03:17;19.42;;;10.25;;
60006;SDS011;45863;50.336;3.536;2022-08-19T03:05:43;20.25;;;9.30;;
60006;SDS011;45863;50.336;3.536;2022-08-19T03:08:09;22.58;;;10.10;;
60006;SDS011;45863;50.336;3.536;2022-08-19T03:10:47;20.45;;;9.48;;
60006;SDS011;45863;50.336;3.536;2022-08-19T03:13:13;17.17;;;10.05;;
60006;SDS011;45863;50.336;3.536;2022-08-19T03:15:39;15.77;;;8.82;;
60006;SDS011;45863;50.336;3.536;2022-08-19T03:18:04;15.90;;;9.50;;
60006;SDS011;45863;50.336;3.536;2022-08-19T03:20:30;19.53;;;10.63;;
60006;SDS011;45863;50.336;3.536;2022-08-19T03:22:55;14.23;;;8.40;;
60006;SDS011;45863;50.336;3.536;2022-08-19T03:25:20;15.73;;;8.90;;
60006;SDS011;45863;50.336;3.536;2022-08-19T03:27:45;17.33;;;9.47;;
60006;SDS011;45863;50.336;3.536;2022-08-19T03:30:13;17.08;;;9.40;;
60006;SDS011;45863;50.336;3.536;2022-08-19T03:32:39;18.63;;;8.48;;
60006;SDS011;45863;50.336;3.536;2022-08-19T03:35:04;15.97;;;8.77;;
60006;SDS011;45863;50.336;3.536;2022-08-19T03:37:29;18.27;;;9.10;;
60006;SDS011;45863;50.336;3.536;2022-08-19T03:39:55;15.57;;;8.85;;
60006;SDS011;45863;50.336;3.536;2022-08-19T03:42:20;21.03;;;9.33;;
60006;SDS011;45863;50.336;3.536;2022-08-19T03:44:45;15.67;;;8.87;;
60006;SDS011;45863;50.336;3.536;2022-08-19T03:47:10;14.30;;;8.35;;
60006;SDS011;45863;50.336;3.536;2022-08-19T03:49:41;12.05;;;7.30;;
60006;SDS011;45863;50.336;3.536;2022-08-19T03:52:06;18.20;;;8.10;;
60006;SDS011;45863;50.336;3.536;2022-08-19T03:54:32;14.70;;;7.70;;
60006;SDS011;45863;50.336;3.536;2022-08-19T03:56:57;14.88;;;8.07;;
60006;SDS011;45863;50.336;3.536;2022-08-19T03:59:24;14.05;;;7.57;;
60006;SDS011;45863;50.336;3.536;2022-08-19T04:01:51;16.92;;;7.32;;
60006;SDS011;45863;50.336;3.536;2022-08-19T04:04:16;14.38;;;7.07;;
60006;SDS011;45863;50.336;3.536;2022-08-19T04:06:42;13.90;;;7.35;;
60006;SDS011;45863;50.336;3.536;2022-08-19T04:09:09;14.32;;;7.38;;
60006;SDS011;45863;50.336;3.536;2022-08-19T04:11:36;14.23;;;6.88;;
60006;SDS011;45863;50.336;3.536;2022-08-19T04:14:06;12.23;;;6.68;;
60006;SDS011;45863;50.336;3.536;2022-08-19T04:16:32;12.23;;;7.07;;
60006;SDS011;45863;50.336;3.536;2022-08-19T04:18:59;13.63;;;6.75;;
60006;SDS011;45863;50.336;3.536;2022-08-19T04:21:25;12.25;;;6.90;;
60006;SDS011;45863;50.336;3.536;2022-08-19T04:23:51;16.95;;;7.30;;
60006;SDS011;45863;50.336;3.536;2022-08-19T04:26:17;13.00;;;7.00;;
60006;SDS011;45863;50.336;3.536;2022-08-19T04:28:43;13.40;;;6.45;;
60006;SDS011;45863;50.336;3.536;2022-08-19T04:31:12;14.80;;;6.40;;
60006;SDS011;45863;50.336;3.536;2022-08-19T04:33:38;13.77;;;6.38;;
60006;SDS011;45863;50.336;3.536;2022-08-19T04:36:03;11.20;;;6.33;;
60006;SDS011;45863;50.336;3.536;2022-08-19T04:38:28;16.60;;;6.80;;
60006;SDS011;45863;50.336;3.536;2022-08-19T04:40:53;15.07;;;6.77;;
60006;SDS011;45863;50.336;3.536;2022-08-19T04:43:38;14.50;;;7.00;;
60006;SDS011;45863;50.336;3.536;2022-08-19T04:46:04;16.10;;;7.28;;
60006;SDS011;45863;50.336;3.536;2022-08-19T04:48:29;12.95;;;6.20;;
60006;SDS011;45863;50.336;3.536;2022-08-19T04:50:56;19.58;;;7.38;;
60006;SDS011;45863;50.336;3.536;2022-08-19T04:53:27;18.10;;;7.93;;
60006;SDS011;45863;50.336;3.536;2022-08-19T04:55:53;17.35;;;8.10;;
60006;SDS011;45863;50.336;3.536;2022-08-19T04:58:19;12.00;;;7.15;;
60006;SDS011;45863;50.336;3.536;2022-08-19T05:00:44;18.17;;;8.47;;
60006;SDS011;45863;50.336;3.536;2022-08-19T05:03:09;14.32;;;6.68;;
60006;SDS011;45863;50.336;3.536;2022-08-19T05:05:39;14.85;;;6.57;;
60006;SDS011;45863;50.336;3.536;2022-08-19T05:08:04;15.70;;;6.95;;
60006;SDS011;45863;50.336;3.536;2022-08-19T05:10:30;16.10;;;7.55;;
60006;SDS011;45863;50.336;3.536;2022-08-19T05:12:56;16.80;;;7.15;;
60006;SDS011;45863;50.336;3.536;2022-08-19T05:15:22;18.25;;;6.75;;
60006;SDS011;45863;50.336;3.536;2022-08-19T05:17:47;20.20;;;7.87;;
60006;SDS011;45863;50.336;3.536;2022-08-19T05:20:32;14.35;;;7.10;;
60006;SDS011;45863;50.336;3.536;2022-08-19T05:23:16;12.88;;;5.70;;
60006;SDS011;45863;50.336;3.536;2022-08-19T05:25:42;13.13;;;6.13;;
60006;SDS011;45863;50.336;3.536;2022-08-19T05:28:07;16.85;;;6.45;;
60006;SDS011;45863;50.336;3.536;2022-08-19T05:30:32;20.48;;;7.47;;
60006;SDS011;45863;50.336;3.536;2022-08-19T05:32:59;16.30;;;8.38;;
60006;SDS011;45863;50.336;3.536;2022-08-19T05:35:24;16.08;;;7.20;;
60006;SDS011;45863;50.336;3.536;2022-08-19T05:37:49;12.85;;;7.03;;
60006;SDS011;45863;50.336;3.536;2022-08-19T05:40:14;19.10;;;7.13;;
60006;SDS011;45863;50.336;3.536;2022-08-19T05:42:39;13.27;;;6.93;;
60006;SDS011;45863;50.336;3.536;2022-08-19T05:45:05;14.48;;;6.85;;
60006;SDS011;45863;50.336;3.536;2022-08-19T05:47:31;13.77;;;6.88;;
60006;SDS011;45863;50.336;3.536;2022-08-19T05:49:56;14.85;;;6.13;;
60006;SDS011;45863;50.336;3.536;2022-08-19T05:52:22;14.97;;;7.40;;
60006;SDS011;45863;50.336;3.536;2022-08-19T05:54:47;14.70;;;7.27;;
60006;SDS011;45863;50.336;3.536;2022-08-19T05:57:12;17.48;;;7.43;;
60006;SDS011;45863;50.336;3.536;2022-08-19T05:59:38;14.73;;;7.70;;
60006;SDS011;45863;50.336;3.536;2022-08-19T06:02:04;12.67;;;6.77;;
60006;SDS011;45863;50.336;3.536;2022-08-19T06:04:29;17.20;;;7.82;;
60006;SDS011;45863;50.336;3.536;2022-08-19T06:06:54;17.50;;;7.75;;
60006;SDS011;45863;50.336;3.536;2022-08-19T06:09:20;18.38;;;8.02;;
60006;SDS011;45863;50.336;3.536;2022-08-19T06:11:48;17.90;;;7.45;;
60006;SDS011;45863;50.336;3.536;2022-08-19T06:14:18;15.50;;;8.02;;
60006;SDS011;45863;50.336;3.536;2022-08-19T06:16:46;14.68;;;8.48;;
60006;SDS011;45863;50.336;3.536;2022-08-19T06:19:13;16.33;;;7.25;;
60006;SDS011;45863;50.336;3.536;2022-08-19T06:21:40;17.48;;;8.35;;
60006;SDS011;45863;50.336;3.536;2022-08-19T06:24:06;13.02;;;7.78;;
60006;SDS011;45863;50.336;3.536;2022-08-19T06:26:33;16.17;;;7.72;;
60006;SDS011;45863;50.336;3.536;2022-08-19T06:28:59;11.90;;;7.40;;
60006;SDS011;45863;50.336;3.536;2022-08-19T06:31:25;15.17;;;7.67;;
60006;SDS011;45863;50.336;3.536;2022-08-19T06:33:51;13.80;;;7.10;;
60006;SDS011;45863;50.336;3.536;2022-08-19T06:36:27;17.00;;;7.57;;
60006;SDS011;45863;50.336;3.536;2022-08-19T06:38:56;12.13;;;6.97;;
60006;SDS011;45863;50.336;3.536;2022-08-19T06:41:23;13.55;;;7.50;;
60006;SDS011;45863;50.336;3.536;2022-08-19T06:43:48;13.68;;;7.13;;
60006;SDS011;45863;50.336;3.536;2022-08-19T06:46:14;16.38;;;8.20;;
60006;SDS011;45863;50.336;3.536;2022-08-19T06:48:40;13.70;;;7.07;;
60006;SDS011;45863;50.336;3.536;2022-08-19T06:51:05;14.98;;;7.35;;
60006;SDS011;45863;50.336;3.536;2022-08-19T06:53:31;12.02;;;6.82;;
60006;SDS011;45863;50.336;3.536;2022-08-19T06:55:56;12.35;;;6.57;;
60006;SDS011;45863;50.336;3.536;2022-08-19T06:58:22;16.58;;;8.07;;
60006;SDS011;45863;50.336;3.536;2022-08-19T07:00:47;14.17;;;7.73;;
60006;SDS011;45863;50.336;3.536;2022-08-19T07:03:13;13.00;;;7.53;;
60006;SDS011;45863;50.336;3.536;2022-08-19T07:05:41;16.23;;;7.67;;
60006;SDS011;45863;50.336;3.536;2022-08-19T07:08:07;14.65;;;7.70;;
60006;SDS011;45863;50.336;3.536;2022-08-19T07:10:32;14.25;;;7.63;;
60006;SDS011;45863;50.336;3.536;2022-08-19T07:12:58;16.02;;;7.68;;
60006;SDS011;45863;50.336;3.536;2022-08-19T07:15:24;13.02;;;7.28;;
60006;SDS011;45863;50.336;3.536;2022-08-19T07:17:49;14.63;;;7.50;;
60006;SDS011;45863;50.336;3.536;2022-08-19T07:20:16;14.95;;;7.80;;
60006;SDS011;45863;50.336;3.536;2022-08-19T07:22:41;14.43;;;7.57;;
60006;SDS011;45863;50.336;3.536;2022-08-19T07:25:07;14.55;;;7.90;;
60006;SDS011;45863;50.336;3.536;2022-08-19T07:27:33;13.70;;;7.85;;
60006;SDS011;45863;50.336;3.536;2022-08-19T07:29:59;14.23;;;7.75;;
60006;SDS011;45863;50.336;3.536;2022-08-19T07:32:25;15.35;;;6.72;;
60006;SDS011;45863;50.336;3.536;2022-08-19T07:34:53;15.55;;;7.72;;
60006;SDS011;45863;50.336;3.536;2022-08-19T07:37:18;16.77;;;7.25;;
60006;SDS011;45863;50.336;3.536;2022-08-19T07:39:44;12.27;;;7.13;;
60006;SDS011;45863;50.336;3.536;2022-08-19T07:42:09;14.35;;;7.68;;
60006;SDS011;45863;50.336;3.536;2022-08-19T07:44:35;12.90;;;6.93;;
60006;SDS011;45863;50.336;3.536;2022-08-19T07:47:00;16.75;;;7.50;;
60006;SDS011;45863;50.336;3.536;2022-08-19T07:49:26;10.35;;;6.53;;
60006;SDS011;45863;50.336;3.536;2022-08-19T07:51:55;13.65;;;7.43;;
60006;SDS011;45863;50.336;3.536;2022-08-19T07:54:22;14.25;;;7.60;;
60006;SDS011;45863;50.336;3.536;2022-08-19T07:56:47;11.57;;;6.47;;
60006;SDS011;45863;50.336;3.536;2022-08-19T07:59:12;14.27;;;6.55;;
60006;SDS011;45863;50.336;3.536;2022-08-19T08:01:38;11.93;;;7.00;;
60006;SDS011;45863;50.336;3.536;2022-08-19T08:04:05;12.48;;;6.72;;
60006;SDS011;45863;50.336;3.536;2022-08-19T08:06:49;12.93;;;6.18;;
60006;SDS011;45863;50.336;3.536;2022-08-19T08:09:34;14.23;;;7.13;;
60006;SDS011;45863;50.336;3.536;2022-08-19T08:12:04;13.27;;;6.50;;
60006;SDS011;45863;50.336;3.536;2022-08-19T08:14:36;14.10;;;6.18;;
60006;SDS011;45863;50.336;3.536;2022-08-19T08:17:02;10.60;;;6.13;;
60006;SDS011;45863;50.336;3.536;2022-08-19T08:19:28;10.55;;;6.00;;
60006;SDS011;45863;50.336;3.536;2022-08-19T08:21:54;11.27;;;5.82;;
60006;SDS011;45863;50.336;3.536;2022-08-19T08:24:20;10.73;;;6.10;;
60006;SDS011;45863;50.336;3.536;2022-08-19T08:26:45;10.25;;;5.80;;
60006;SDS011;45863;50.336;3.536;2022-08-19T08:29:11;11.40;;;5.93;;
60006;SDS011;45863;50.336;3.536;2022-08-19T08:31:38;9.80;;;6.00;;
60006;SDS011;45863;50.336;3.536;2022-08-19T08:34:03;9.20;;;5.53;;
60006;SDS011;45863;50.336;3.536;2022-08-19T08:36:29;7.80;;;5.20;;
60006;SDS011;45863;50.336;3.536;2022-08-19T08:38:54;10.13;;;4.65;;
60006;SDS011;45863;50.336;3.536;2022-08-19T08:41:22;11.45;;;5.93;;
60006;SDS011;45863;50.336;3.536;2022-08-19T08:43:52;10.95;;;5.65;;
60006;SDS011;45863;50.336;3.536;2022-08-19T08:51:12;10.60;;;5.07;;
60006;SDS011;45863;50.336;3.536;2022-08-19T08:53:39;12.43;;;4.70;;
60006;SDS011;45863;50.336;3.536;2022-08-19T08:56:06;8.85;;;5.63;;
60006;SDS011;45863;50.336;3.536;2022-08-19T08:58:32;11.00;;;5.20;;
60006;SDS011;45863;50.336;3.536;2022-08-19T09:01:08;11.38;;;5.13;;
60006;SDS011;45863;50.336;3.536;2022-08-19T09:03:33;13.23;;;4.93;;
60006;SDS011;45863;50.336;3.536;2022-08-19T09:06:00;10.80;;;5.13;;
60006;SDS011;45863;50.336;3.536;2022-08-19T09:10:57;10.65;;;4.55;;
60006;SDS011;45863;50.336;3.536;2022-08-19T09:13:31;10.33;;;4.63;;
60006;SDS011;45863;50.336;3.536;2022-08-19T09:16:05;9.23;;;4.75;;
60006;SDS011;45863;50.336;3.536;2022-08-19T09:18:41;10.18;;;4.65;;
60006;SDS011;45863;50.336;3.536;2022-08-19T09:21:07;9.25;;;4.93;;
60006;SDS011;45863;50.336;3.536;2022-08-19T09:23:33;8.73;;;4.90;;
60006;SDS011;45863;50.336;3.536;2022-08-19T09:25:59;9.55;;;5.15;;
60006;SDS011;45863;50.336;3.536;2022-08-19T09:28:24;9.83;;;4.27;;
60006;SDS011;45863;50.336;3.536;2022-08-19T09:30:49;8.80;;;4.97;;
60006;SDS011;45863;50.336;3.536;2022-08-19T09:33:15;9.80;;;4.40;;
60006;SDS011;45863;50.336;3.536;2022-08-19T09:35:41;9.67;;;5.53;;
60006;SDS011;45863;50.336;3.536;2022-08-19T09:38:06;9.47;;;4.50;;
60006;SDS011;45863;50.336;3.536;2022-08-19T09:40:31;9.57;;;4.20;;
60006;SDS011;45863;50.336;3.536;2022-08-19T09:42:57;8.70;;;4.65;;
60006;SDS011;45863;50.336;3.536;2022-08-19T09:45:24;10.48;;;4.25;;
60006;SDS011;45863;50.336;3.536;2022-08-19T09:47:51;10.33;;;4.10;;
60006;SDS011;45863;50.336;3.536;2022-08-19T09:50:16;6.70;;;3.88;;
60006;SDS011;45863;50.336;3.536;2022-08-19T09:52:42;6.13;;;2.30;;
60006;SDS011;45863;50.336;3.536;2022-08-19T09:55:09;4.30;;;1.53;;
60006;SDS011;45863;50.336;3.536;2022-08-19T09:57:34;3.92;;;1.55;;
60006;SDS011;45863;50.336;3.536;2022-08-19T10:00:00;6.47;;;1.98;;
60006;SDS011;45863;50.336;3.536;2022-08-19T10:02:25;6.95;;;2.10;;
60006;SDS011;45863;50.336;3.536;2022-08-19T10:04:51;6.30;;;2.47;;
60006;SDS011;45863;50.336;3.536;2022-08-19T10:07:35;8.13;;;3.08;;
60006;SDS011;45863;50.336;3.536;2022-08-19T10:10:00;8.38;;;3.70;;
60006;SDS011;45863;50.336;3.536;2022-08-19T10:12:25;5.70;;;3.38;;
60006;SDS011;45863;50.336;3.536;2022-08-19T10:14:51;5.77;;;3.60;;
60006;SDS011;45863;50.336;3.536;2022-08-19T10:17:18;6.72;;;3.47;;
60006;SDS011;45863;50.336;3.536;2022-08-19T10:19:43;5.10;;;3.10;;
60006;SDS011;45863;50.336;3.536;2022-08-19T10:22:08;6.32;;;3.30;;
60006;SDS011;45863;50.336;3.536;2022-08-19T10:24:36;8.07;;;3.10;;
60006;SDS011;45863;50.336;3.536;2022-08-19T10:27:01;5.05;;;2.60;;
60006;SDS011;45863;50.336;3.536;2022-08-19T10:29:31;6.18;;;2.60;;
60006;SDS011;45863;50.336;3.536;2022-08-19T10:31:57;5.45;;;2.78;;
60006;SDS011;45863;50.336;3.536;2022-08-19T10:34:23;5.32;;;2.38;;
60006;SDS011;45863;50.336;3.536;2022-08-19T10:36:49;5.40;;;2.30;;
60006;SDS011;45863;50.336;3.536;2022-08-19T10:39:14;5.40;;;2.05;;
60006;SDS011;45863;50.336;3.536;2022-08-19T10:41:40;4.25;;;1.67;;
60006;SDS011;45863;50.336;3.536;2022-08-19T10:44:06;3.83;;;1.50;;
60006;SDS011;45863;50.336;3.536;2022-08-19T10:46:33;3.90;;;1.60;;
60006;SDS011;45863;50.336;3.536;2022-08-19T10:49:02;4.90;;;1.65;;
60006;SDS011;45863;50.336;3.536;2022-08-19T10:51:28;4.40;;;1.38;;
60006;SDS011;45863;50.336;3.536;2022-08-19T10:54:12;4.38;;;1.38;;
60006;SDS011;45863;50.336;3.536;2022-08-19T10:56:37;3.85;;;1.15;;
60006;SDS011;45863;50.336;3.536;2022-08-19T10:59:27;5.75;;;1.88;;
60006;SDS011;45863;50.336;3.536;2022-08-19T11:01:54;2.85;;;1.10;;
60006;SDS011;45863;50.336;3.536;2022-08-19T11:04:19;3.60;;;1.40;;
60006;SDS011;45863;50.336;3.536;2022-08-19T11:06:45;3.25;;;1.38;;
60006;SDS011;45863;50.336;3.536;2022-08-19T11:09:12;3.13;;;1.20;;
60006;SDS011;45863;50.336;3.536;2022-08-19T11:11:37;2.53;;;1.13;;
60006;SDS011;45863;50.336;3.536;2022-08-19T11:14:06;3.92;;;1.30;;
60006;SDS011;45863;50.336;3.536;2022-08-19T11:16:31;4.45;;;1.38;;
60006;SDS011;45863;50.336;3.536;2022-08-19T11:18:58;5.85;;;1.25;;
60006;SDS011;45863;50.336;3.536;2022-08-19T11:21:27;3.65;;;1.40;;
60006;SDS011;45863;50.336;3.536;2022-08-19T11:23:54;3.80;;;1.40;;
60006;SDS011;45863;50.336;3.536;2022-08-19T11:26:21;4.05;;;1.50;;
60006;SDS011;45863;50.336;3.536;2022-08-19T11:28:46;4.47;;;1.10;;
60006;SDS011;45863;50.336;3.536;2022-08-19T11:31:13;6.15;;;1.58;;
60006;SDS011;45863;50.336;3.536;2022-08-19T11:33:39;4.13;;;1.45;;
60006;SDS011;45863;50.336;3.536;2022-08-19T11:36:04;4.88;;;1.55;;
60006;SDS011;45863;50.336;3.536;2022-08-19T11:38:30;3.47;;;1.42;;
60006;SDS011;45863;50.336;3.536;2022-08-19T11:40:59;3.33;;;1.55;;
60006;SDS011;45863;50.336;3.536;2022-08-19T11:43:24;5.53;;;2.05;;
60006;SDS011;45863;50.336;3.536;2022-08-19T11:45:51;6.05;;;2.47;;
60006;SDS011;45863;50.336;3.536;2022-08-19T11:48:16;6.10;;;3.80;;
60006;SDS011;45863;50.336;3.536;2022-08-19T11:50:42;9.27;;;5.72;;
60006;SDS011;45863;50.336;3.536;2022-08-19T11:53:08;8.10;;;5.13;;
60006;SDS011;45863;50.336;3.536;2022-08-19T11:55:36;11.32;;;8.20;;
60006;SDS011;45863;50.336;3.536;2022-08-19T11:58:02;9.32;;;5.85;;
60006;SDS011;45863;50.336;3.536;2022-08-19T12:00:27;9.45;;;5.93;;
60006;SDS011;45863;50.336;3.536;2022-08-19T12:02:52;9.70;;;6.00;;
60006;SDS011;45863;50.336;3.536;2022-08-19T12:05:17;8.38;;;6.38;;
60006;SDS011;45863;50.336;3.536;2022-08-19T12:07:42;10.35;;;6.10;;
60006;SDS011;45863;50.336;3.536;2022-08-19T12:10:08;10.38;;;5.80;;
60006;SDS011;45863;50.336;3.536;2022-08-19T12:12:34;8.65;;;4.78;;
60006;SDS011;45863;50.336;3.536;2022-08-19T12:14:59;8.70;;;5.15;;
60006;SDS011;45863;50.336;3.536;2022-08-19T12:17:27;9.07;;;5.07;;
60006;SDS011;45863;50.336;3.536;2022-08-19T12:19:53;8.15;;;3.90;;
60006;SDS011;45863;50.336;3.536;2022-08-19T12:22:19;5.30;;;3.38;;
60006;SDS011;45863;50.336;3.536;2022-08-19T12:24:45;6.07;;;2.50;;
60006;SDS011;45863;50.336;3.536;2022-08-19T12:27:10;4.03;;;2.30;;
60006;SDS011;45863;50.336;3.536;2022-08-19T12:29:36;6.13;;;2.50;;
60006;SDS011;45863;50.336;3.536;2022-08-19T12:32:01;6.28;;;3.08;;
60006;SDS011;45863;50.336;3.536;2022-08-19T12:34:27;5.57;;;2.80;;
60006;SDS011;45863;50.336;3.536;2022-08-19T12:36:55;7.60;;;3.58;;
60006;SDS011;45863;50.336;3.536;2022-08-19T12:39:20;6.95;;;2.47;;
60006;SDS011;45863;50.336;3.536;2022-08-19T12:41:45;4.67;;;2.60;;
60006;SDS011;45863;50.336;3.536;2022-08-19T12:44:11;4.72;;;2.28;;
60006;SDS011;45863;50.336;3.536;2022-08-19T12:46:37;6.13;;;2.70;;
60006;SDS011;45863;50.336;3.536;2022-08-19T12:49:02;6.57;;;2.47;;
60006;SDS011;45863;50.336;3.536;2022-08-19T12:51:28;6.50;;;3.50;;
60006;SDS011;45863;50.336;3.536;2022-08-19T12:53:53;6.93;;;2.60;;
60006;SDS011;45863;50.336;3.536;2022-08-19T12:56:18;5.67;;;2.30;;
60006;SDS011;45863;50.336;3.536;2022-08-19T12:58:44;5.07;;;2.83;;
60006;SDS011;45863;50.336;3.536;2022-08-19T13:01:15;6.35;;;3.70;;
60006;SDS011;45863;50.336;3.536;2022-08-19T13:03:41;7.47;;;4.15;;
60006;SDS011;45863;50.336;3.536;2022-08-19T13:06:06;6.03;;;3.70;;
60006;SDS011;45863;50.336;3.536;2022-08-19T13:08:32;7.85;;;4.90;;
60006;SDS011;45863;50.336;3.536;2022-08-19T13:10:57;9.70;;;4.75;;
60006;SDS011;45863;50.336;3.536;2022-08-19T13:13:23;6.53;;;4.63;;
60006;SDS011;45863;50.336;3.536;2022-08-19T13:15:51;8.05;;;4.32;;
60006;SDS011;45863;50.336;3.536;2022-08-19T13:18:16;6.40;;;3.47;;
60006;SDS011;45863;50.336;3.536;2022-08-19T13:20:41;5.43;;;3.70;;
60006;SDS011;45863;50.336;3.536;2022-08-19T13:23:07;9.77;;;3.95;;
60006;SDS011;45863;50.336;3.536;2022-08-19T13:25:32;6.68;;;3.72;;
60006;SDS011;45863;50.336;3.536;2022-08-19T13:27:58;7.82;;;4.53;;
60006;SDS011;45863;50.336;3.536;2022-08-19T13:30:24;10.38;;;5.15;;
60006;SDS011;45863;50.336;3.536;2022-08-19T13:33:08;9.38;;;5.25;;
60006;SDS011;45863;50.336;3.536;2022-08-19T13:35:44;10.35;;;5.82;;
60006;SDS011;45863;50.336;3.536;2022-08-19T13:38:10;11.50;;;6.82;;
60006;SDS011;45863;50.336;3.536;2022-08-19T13:40:36;12.50;;;6.53;;
60006;SDS011;45863;50.336;3.536;2022-08-19T13:43:02;10.40;;;6.53;;
60006;SDS011;45863;50.336;3.536;2022-08-19T13:45:28;10.48;;;6.53;;
60006;SDS011;45863;50.336;3.536;2022-08-19T13:47:54;10.05;;;6.32;;
60006;SDS011;45863;50.336;3.536;2022-08-19T13:50:21;8.77;;;5.68;;
60006;SDS011;45863;50.336;3.536;2022-08-19T13:52:47;9.38;;;4.57;;
60006;SDS011;45863;50.336;3.536;2022-08-19T13:55:13;7.38;;;3.38;;
60006;SDS011;45863;50.336;3.536;2022-08-19T13:57:39;5.18;;;2.63;;
60006;SDS011;45863;50.336;3.536;2022-08-19T14:00:06;6.82;;;3.10;;
60006;SDS011;45863;50.336;3.536;2022-08-19T14:02:32;7.50;;;2.35;;
60006;SDS011;45863;50.336;3.536;2022-08-19T14:04:58;4.07;;;1.80;;
60006;SDS011;45863;50.336;3.536;2022-08-19T14:07:23;4.63;;;1.73;;
60006;SDS011;45863;50.336;3.536;2022-08-19T14:09:49;5.88;;;1.60;;
60006;SDS011;45863;50.336;3.536;2022-08-19T14:12:17;3.25;;;1.10;;
60006;SDS011;45863;50.336;3.536;2022-08-19T14:14:43;4.82;;;1.40;;
60006;SDS011;45863;50.336;3.536;2022-08-19T14:17:08;5.03;;;1.60;;
60006;SDS011;45863;50.336;3.536;2022-08-19T14:19:34;5.72;;;1.58;;
60006;SDS011;45863;50.336;3.536;2022-08-19T14:21:59;4.47;;;1.90;;
60006;SDS011;45863;50.336;3.536;2022-08-19T14:24:24;4.03;;;1.63;;
60006;SDS011;45863;50.336;3.536;2022-08-19T14:26:50;2.63;;;1.25;;
60006;SDS011;45863;50.336;3.536;2022-08-19T14:29:15;2.63;;;1.07;;
60006;SDS011;45863;50.336;3.536;2022-08-19T14:31:41;2.38;;;0.90;;
60006;SDS011;45863;50.336;3.536;2022-08-19T14:34:07;2.97;;;0.82;;
60006;SDS011;45863;50.336;3.536;2022-08-19T14:36:32;3.03;;;1.00;;
60006;SDS011;45863;50.336;3.536;2022-08-19T14:38:59;2.75;;;1.02;;